Noxapater, MS (39346)

7:48 PM CDT on September 03, 2015 (GMT -0500)
CenterRidge/Shiloh Community | | Change Station
CLOSE
Current Station
Personal Weather Station
Location: Louisville, MS
Elevation: 548 ft
Nearby Weather Stations

Elev 548 ft 33.08 °N, 89.22 °W | Updated 3 minutes ago

Clear
Clear
80.3 °F
Feels Like 85 °F
N
0.0
Wind Variable Wind from NNE
Gusts 0.0 mph

Today
High -- | Low -- °F
--% Chance of Precip.
Yesterday
High -- | Low -- °F
Precip. -- in
6:32 AM 7:19 PM
Waning Gibbous, 65% visible
Pressure 29.92 in
Visibility 10.0 miles
Clouds Scattered Clouds 10000 ft
Heat Index 85 °F
Dew Point 74 °F
Humidity 80%
Rainfall 0.00 in
Snow Depth Not available.
UV 0 out of 12
Pollen 8.80 out of 12
Air Quality Not available.
Flu Activity Not available.
METAR KSTF 040035Z AUTO 00000KT 10SM SCT100 26/21 A2992 RMK AO2
Pressure 29.92 in
Visibility 10.0 miles
Clouds Scattered Clouds 10000 ft
Heat Index 85 °F
Dew Point 74 °F
Humidity 80%
Rainfall 0.00 in
Snow Depth Not available.
UV 0 out of 12
Pollen 8.80 out of 12
Air Quality Not available.
Flu Activity Not available.
METAR KSTF 040035Z AUTO 00000KT 10SM SCT100 26/21 A2992 RMK AO2

10-Day Weather Forecast

×

Almanac

Astronomy

Sep. 03, 2015 Rise Set
Actual Time
Civil Twilight
Nautical Twilight
Astronomical Twilight
Moon
Length of Visible Light
Length of Day
Tomorrow will be .
, % of the Moon is Illuminated

Today's Extremes

State Highs State Lows

Community

WunderPhotos

Upload Photos

1,852,075 photos uploaded!

WunderBlogs® & News

Nearby

Air Quality

  Air Quality AQ Index Pollutant
Not available.

Snow Depth

Station Depth Elevation

Earthquake Activity

City Distance Mag. Time & Date
Minimum magnitude displayed is 2.5.

Coastal Water Temperatures

Place Temperature

Stations

Nearby Weather Stations

Station Location Temp. Windchill Dew Point Humidity Wind Precip. Elev Updated Type